Overview Statistics Trail Chart Weather Telemetry Raw packets
 

This is the latest recevied weather packets stored in our database for station/object N9DMT-13. If no packets are shown the sender has not sent any weather packets the latest 10 day(s).

<< 44 45 46 47 48 49 50 >>
Time Temp. Humidity Pressure Rain* Wind** Luminosity Snow
1777587302 12.22° C 43% 981.4 hPa 0 mm - - -
1777587001 12.22° C 42% 981.3 hPa 0 mm - - -
1777586701 12.22° C 43% 981.3 hPa 0 mm - - -
1777586400 12.22° C 43% 981.5 hPa 0 mm - - -
1777586099 12.22° C 43% 981.5 hPa 0 mm - - -
1777585798 12.22° C 42% 981.4 hPa 0 mm - - -
1777585498 12.22° C 40% 981.3 hPa 0 mm - - -
1777585210 12.78° C 41% 981.4 hPa 0 mm - - -
1777584897 12.78° C 42% 981.3 hPa 0 mm - - -
1777584596 12.22° C 41% 981.4 hPa 0 mm - - -
1777584296 12.22° C 41% 981.5 hPa 0 mm - - -
1777583995 12.78° C 40% 981.5 hPa 0 mm - - -
1777583694 12.78° C 44% 981.5 hPa 0 mm - - -
1777583394 12.78° C 44% 981.6 hPa 0 mm - - -
1777583093 12.78° C 45% 981.5 hPa 0 mm - - -
1777582792 13.33° C 40% 981.6 hPa 0 mm - - -
1777582491 12.22° C 44% 981.7 hPa 0 mm - - -
1777582191 12.22° C 44% 981.8 hPa 0 mm - - -
1777581890 12.22° C 44% 981.9 hPa 0 mm - - -
1777581589 12.78° C 45% 981.9 hPa 0 mm - - -
1777581288 13.89° C 42% 981.9 hPa 0 mm - - -
1777580987 15° C 38% 981.9 hPa 0 mm - - -
1777580687 14.44° C 44% 982 hPa 0 mm - - -
1777580385 13.33° C 48% 981.9 hPa 0 mm - - -
1777580084 12.22° C 48% 982.2 hPa 0 mm - - -

* Rain latest hour (hover to see other rain measurements)
** Current wind speed in m/s (hover to see current wind gust speed)